Terminal Aerodrome Forecast
Issued by NWS

Home | Current Version | Previous Version | Graphics & Text | Print | Product List | Glossary Off
Versions: 1 2 3 4 5 6 7 8 9 10 11 12 13 14 15 16 17 18 19 20 21 22 23 24 25 26 27 28 29 30 31 32 33 34 35 36 37 38 39 40 41 42 43 44 45 46 47

280
FTUS43 KDDC 280520
TAFHYS
TAF
KHYS 280520Z 2806/2906 18017G26KT P6SM BKN200 WS020/20045KT
      TEMPO 2806/2810 -TSRA OVC050CB
     FM281000 18010G20KT P6SM VCTS BKN100CB WS020/20045KT
     FM281500 20020G30KT P6SM SKC
     FM281800 20012KT P6SM SCT080
     FM282100 17010G20KT P6SM BKN080
     FM290300 18015KT P6SM VCTS BKN080CB=

USA.gov is the U.S. government's official web portal to all federal, state and local government web resources and services.